Time;durP1;ratioP1;P1;durP2;ratioP2;P2;SDS_P1;SDS_P2;PMS_P1;PMS_P2;Temp;Humidity;BMP_temperature;BMP_pressure;BME280_temperature;BME280_humidity;BME280_pressure;Samples;Min_cycle;Max_cycle;Signal;HPM_P1;HPM_P2
2023/05/05 00:01:52;;;;;;;2.83;1.60;;;16.20;58.30;;;;;;5063684;28;20044;-89
2023/05/05 00:04:21;;;;;;;2.13;1.23;;;16.20;58.40;;;;;;5072462;28;20043;-89
2023/05/05 00:06:49;;;;;;;2.30;1.27;;;16.10;58.50;;;;;;5049762;28;20494;-88
2023/05/05 00:09:16;;;;;;;2.45;1.38;;;16.10;58.70;;;;;;5070965;28;20048;-89
2023/05/05 00:11:44;;;;;;;3.53;1.33;;;16.10;58.80;;;;;;5064646;28;20141;-88
2023/05/05 00:14:11;;;;;;;2.70;1.17;;;16.10;59.00;;;;;;5078591;28;20139;-89
2023/05/05 00:16:38;;;;;;;3.60;1.52;;;16.10;59.10;;;;;;5056143;28;20139;-88
2023/05/05 00:19:08;;;;;;;3.33;1.67;;;16.00;59.30;;;;;;5059241;28;20040;-88
2023/05/05 00:21:36;;;;;;;2.88;1.48;;;16.00;59.50;;;;;;5083538;28;20223;-89
2023/05/05 00:24:03;;;;;;;3.58;1.38;;;16.00;59.60;;;;;;5075259;28;20130;-88
2023/05/05 00:26:30;;;;;;;3.80;1.70;;;16.00;59.70;;;;;;5088512;28;20055;-88
2023/05/05 00:28:58;;;;;;;2.58;1.13;;;16.00;59.70;;;;;;5101111;28;20054;-88
2023/05/05 00:31:25;;;;;;;3.03;1.27;;;16.00;59.80;;;;;;5113304;28;20047;-89
2023/05/05 00:33:56;;;;;;;2.67;1.25;;;16.00;59.90;;;;;;5079476;28;20056;-89
2023/05/05 00:36:32;;;;;;;3.90;1.73;;;16.00;60.00;;;;;;5103484;27;20040;-89
2023/05/05 00:39:00;;;;;;;2.60;1.20;;;16.00;60.20;;;;;;5083150;28;20040;-89
2023/05/05 00:41:30;;;;;;;3.10;1.40;;;16.00;60.40;;;;;;5112181;28;20130;-88
2023/05/05 00:44:00;;;;;;;2.42;1.10;;;15.90;60.50;;;;;;5097194;28;20132;-89
2023/05/05 00:46:32;;;;;;;2.35;1.33;;;15.90;60.60;;;;;;5109330;27;20071;-88
2023/05/05 00:49:00;;;;;;;2.55;1.13;;;15.80;60.80;;;;;;5083906;28;20138;-88
2023/05/05 00:51:30;;;;;;;2.90;1.52;;;15.80;61.00;;;;;;5111380;28;20055;-89
2023/05/05 00:53:58;;;;;;;2.78;1.40;;;15.70;61.20;;;;;;5091782;28;20455;-88
2023/05/05 00:56:26;;;;;;;2.95;1.60;;;15.70;61.40;;;;;;5094618;27;20133;-88
2023/05/05 00:58:54;;;;;;;2.60;1.40;;;15.60;61.40;;;;;;5082339;27;20486;-89
2023/05/05 01:01:21;;;;;;;1.90;1.20;;;15.60;61.50;;;;;;5098445;28;20043;-89
2023/05/05 01:03:49;;;;;;;2.63;1.58;;;15.70;61.50;;;;;;5077888;28;20058;-89
2023/05/05 01:06:22;;;;;;;3.38;1.73;;;15.60;61.60;;;;;;5075941;28;20097;-89
2023/05/05 01:09:12;;;;;;;2.85;1.65;;;15.70;61.80;;;;;;5093084;28;20498;-89
2023/05/05 01:11:55;;;;;;;4.55;1.80;;;15.70;61.80;;;;;;5055136;28;20496;-89
2023/05/05 01:14:39;;;;;;;3.33;1.90;;;15.60;61.80;;;;;;5059566;28;20151;-89
2023/05/05 01:17:17;;;;;;;4.75;1.80;;;15.60;61.80;;;;;;5096120;28;20051;-88
2023/05/05 01:19:53;;;;;;;3.00;1.60;;;15.60;61.90;;;;;;5062752;28;20044;-89
2023/05/05 01:22:26;;;;;;;3.15;1.33;;;15.60;62.00;;;;;;5096753;28;20055;-88
2023/05/05 01:25:30;;;;;;;2.75;1.40;;;15.60;62.10;;;;;;5104382;28;20509;-89
2023/05/05 01:28:25;;;;;;;1.75;1.13;;;15.70;62.10;;;;;;5086123;28;20055;-89
2023/05/05 01:31:17;;;;;;;2.92;1.52;;;15.70;62.30;;;;;;5086441;28;20492;-88
2023/05/05 01:33:53;;;;;;;4.68;1.58;;;15.70;62.40;;;;;;5109762;28;20054;-88
2023/05/05 01:36:35;;;;;;;2.80;1.70;;;15.60;62.60;;;;;;5096600;28;20048;-89
2023/05/05 01:39:05;;;;;;;;;;;15.60;62.70;;;;;;5103045;28;20043;-89
2023/05/05 01:41:43;;;;;;;4.10;2.20;;;15.50;62.90;;;;;;5100697;28;19963;-89
2023/05/05 01:44:15;;;;;;;4.53;2.80;;;15.50;63.10;;;;;;5097307;28;20352;-89
2023/05/05 01:46:42;;;;;;;5.05;2.72;;;15.60;63.30;;;;;;5111374;28;20499;-88
2023/05/05 01:49:10;;;;;;;5.38;3.05;;;15.60;63.00;;;;;;5111025;28;20131;-89
2023/05/05 01:51:39;;;;;;;4.75;3.00;;;15.70;63.10;;;;;;5085882;28;20048;-89
2023/05/05 01:54:08;;;;;;;6.07;3.83;;;15.80;63.30;;;;;;5096750;28;20130;-89
2023/05/05 01:56:38;;;;;;;5.75;3.75;;;15.80;63.20;;;;;;5096546;28;20055;-89
2023/05/05 01:59:05;;;;;;;6.65;4.30;;;15.90;63.40;;;;;;5083172;28;20040;-88
2023/05/05 02:01:36;;;;;;;6.25;3.88;;;15.90;63.50;;;;;;5094834;28;20066;-89
2023/05/05 02:04:06;;;;;;;5.95;3.67;;;15.90;63.40;;;;;;5075907;28;20036;-88
2023/05/05 02:06:34;;;;;;;7.15;4.63;;;16.00;63.50;;;;;;5080256;28;20044;-89
2023/05/05 02:09:02;;;;;;;6.05;4.50;;;16.00;63.90;;;;;;5092545;28;20156;-89
2023/05/05 02:11:30;;;;;;;6.43;4.20;;;16.10;63.90;;;;;;5063402;28;20046;-90
2023/05/05 02:13:59;;;;;;;6.65;3.55;;;16.10;64.10;;;;;;5065187;28;20040;-89
2023/05/05 02:16:26;;;;;;;5.47;3.78;;;16.10;64.30;;;;;;5085708;28;20051;-89
2023/05/05 02:18:55;;;;;;;5.35;3.33;;;16.00;64.30;;;;;;5099746;28;20040;-89
2023/05/05 02:21:22;;;;;;;7.20;3.80;;;16.00;64.50;;;;;;5068938;28;20084;-89
2023/05/05 02:23:50;;;;;;;4.22;2.60;;;16.00;64.60;;;;;;5069945;28;20048;-88
2023/05/05 02:26:20;;;;;;;4.63;3.17;;;16.00;64.80;;;;;;5082580;28;20054;-88
2023/05/05 02:29:11;;;;;;;6.13;3.40;;;16.00;65.10;;;;;;5085748;28;20047;-89
2023/05/05 02:31:44;;;;;;;5.05;3.55;;;16.00;65.30;;;;;;5093112;28;20044;-89
2023/05/05 02:34:24;;;;;;;7.18;3.00;;;15.90;65.60;;;;;;5085325;28;20583;-88
2023/05/05 02:36:56;;;;;;;4.47;2.80;;;15.80;65.70;;;;;;5098101;28;20048;-88
2023/05/05 02:40:00;;;;;;;4.35;3.00;;;15.80;65.90;;;;;;5085767;28;20068;-89
2023/05/05 02:42:38;;;;;;;4.10;2.47;;;15.70;66.10;;;;;;5089693;28;20096;-89
2023/05/05 02:45:14;;;;;;;5.75;2.88;;;15.70;66.30;;;;;;5081942;28;20047;-88
2023/05/05 02:47:45;;;;;;;3.55;2.22;;;15.70;66.30;;;;;;5078376;28;20121;-88
2023/05/05 02:50:12;;;;;;;3.53;2.00;;;15.70;66.50;;;;;;5079417;28;20576;-89
2023/05/05 02:52:46;;;;;;;3.50;1.85;;;15.60;66.50;;;;;;5104727;28;20047;-88
2023/05/05 02:55:15;;;;;;;7.00;2.13;;;15.60;66.80;;;;;;5089707;28;20044;-89
2023/05/05 02:58:30;;;;;;;3.60;2.10;;;15.60;66.90;;;;;;5089034;28;20070;-88
2023/05/05 03:01:10;;;;;;;5.40;3.25;;;15.60;67.20;;;;;;5090695;28;20047;-88
2023/05/05 03:03:43;;;;;;;5.22;3.05;;;15.50;67.40;;;;;;5090756;28;20047;-88
2023/05/05 03:06:16;;;;;;;6.45;3.40;;;15.50;67.60;;;;;;5088211;28;20442;-89
2023/05/05 03:09:14;;;;;;;5.65;3.75;;;15.40;67.90;;;;;;5064436;28;20036;-88
2023/05/05 03:12:00;;;;;;;5.60;3.22;;;15.40;68.20;;;;;;5098689;28;20089;-88
2023/05/05 03:14:35;;;;;;;6.38;3.75;;;15.30;68.30;;;;;;5082080;28;20048;-89
2023/05/05 03:17:05;;;;;;;4.18;2.85;;;15.30;68.50;;;;;;5080412;28;20039;-89
2023/05/05 03:19:35;;;;;;;4.50;2.45;;;15.20;68.60;;;;;;5078145;28;20369;-88
2023/05/05 03:22:03;;;;;;;3.97;2.67;;;15.10;68.80;;;;;;5075833;28;20053;-89
2023/05/05 03:24:32;;;;;;;4.97;2.70;;;15.00;69.00;;;;;;5095883;28;20044;-89
2023/05/05 03:27:04;;;;;;;3.75;1.95;;;14.90;69.30;;;;;;5078336;28;20522;-89
2023/05/05 03:29:35;;;;;;;4.43;2.10;;;14.80;69.60;;;;;;5062100;28;20044;-88
2023/05/05 03:32:07;;;;;;;4.20;2.42;;;14.70;69.90;;;;;;5058867;28;20077;-88
2023/05/05 03:34:36;;;;;;;4.97;2.85;;;14.60;70.10;;;;;;5096245;28;20130;-88
2023/05/05 03:37:04;;;;;;;5.00;2.58;;;14.50;70.30;;;;;;5091951;28;20043;-87
2023/05/05 03:39:32;;;;;;;5.00;2.75;;;14.50;70.60;;;;;;5066652;28;20044;-87
2023/05/05 03:41:59;;;;;;;4.45;2.15;;;14.40;70.70;;;;;;5077562;28;20063;-87
2023/05/05 03:44:31;;;;;;;5.43;2.92;;;14.40;71.00;;;;;;5063831;28;20054;-88
2023/05/05 03:46:59;;;;;;;3.60;2.17;;;14.30;71.10;;;;;;5076727;28;20066;-87
2023/05/05 03:49:28;;;;;;;4.10;2.60;;;14.30;71.30;;;;;;5060960;28;20514;-87
2023/05/05 03:51:56;;;;;;;4.68;2.90;;;14.20;71.50;;;;;;5077243;28;20054;-87
2023/05/05 03:54:23;;;;;;;5.53;3.22;;;14.20;72.30;;;;;;5077312;28;20161;-87
2023/05/05 03:56:51;;;;;;;6.85;3.40;;;14.10;71.80;;;;;;5073866;28;20085;-87
2023/05/05 03:59:18;;;;;;;6.68;3.33;;;14.10;72.00;;;;;;5078646;28;20051;-87
2023/05/05 04:01:47;;;;;;;5.32;3.17;;;14.10;72.10;;;;;;5075803;28;20071;-88
2023/05/05 04:04:15;;;;;;;5.28;3.22;;;14.10;72.30;;;;;;5086720;28;20089;-87
2023/05/05 04:06:43;;;;;;;6.15;2.88;;;14.00;72.30;;;;;;5080030;28;20043;-87
2023/05/05 04:09:11;;;;;;;5.50;3.30;;;14.00;72.50;;;;;;5090678;28;20047;-87
2023/05/05 04:11:38;;;;;;;5.63;3.67;;;14.00;72.60;;;;;;5069521;28;20043;-87
2023/05/05 04:14:06;;;;;;;6.38;3.83;;;13.90;72.70;;;;;;5087866;28;20044;-87
2023/05/05 04:16:33;;;;;;;8.63;4.28;;;14.00;73.50;;;;;;5092343;28;20075;-88
2023/05/05 04:19:01;;;;;;;5.15;3.63;;;13.90;72.90;;;;;;5073844;28;20130;-89
2023/05/05 04:21:30;;;;;;;5.90;3.75;;;13.90;73.00;;;;;;5062707;28;20040;-88
2023/05/05 04:23:58;;;;;;;5.72;4.30;;;13.90;73.10;;;;;;5082611;28;20526;-88
2023/05/05 04:26:26;;;;;;;5.35;3.58;;;13.90;73.30;;;;;;5045175;28;20051;-89
2023/05/05 04:28:54;;;;;;;7.63;3.85;;;13.90;73.40;;;;;;5076535;28;20040;-88
2023/05/05 04:31:22;;;;;;;7.85;4.57;;;13.90;73.40;;;;;;5079717;28;20054;-89
2023/05/05 04:33:50;;;;;;;8.25;4.38;;;14.00;73.70;;;;;;5060255;28;20052;-88
2023/05/05 04:36:18;;;;;;;6.10;3.67;;;14.00;73.70;;;;;;5060513;28;20044;-89
2023/05/05 04:38:46;;;;;;;7.22;4.20;;;14.00;73.70;;;;;;5069346;28;20052;-88
2023/05/05 04:41:13;;;;;;;6.68;3.90;;;14.00;73.80;;;;;;5089911;28;20040;-88
2023/05/05 04:43:42;;;;;;;6.40;4.00;;;13.90;73.90;;;;;;5087927;28;20046;-89
2023/05/05 04:46:09;;;;;;;7.93;4.18;;;13.90;74.00;;;;;;5070380;28;20047;-87
2023/05/05 04:48:37;;;;;;;7.18;4.78;;;13.90;74.20;;;;;;5085249;28;20043;-88
2023/05/05 04:51:06;;;;;;;5.82;3.13;;;13.90;74.30;;;;;;5072263;28;20495;-88
2023/05/05 04:53:35;;;;;;;6.65;4.32;;;13.90;74.50;;;;;;5091133;28;20135;-88
2023/05/05 04:56:03;;;;;;;6.10;4.22;;;13.90;74.60;;;;;;5079707;28;20142;-88
2023/05/05 04:58:31;;;;;;;7.20;4.07;;;13.90;74.70;;;;;;5079590;28;20044;-89
2023/05/05 05:01:02;;;;;;;6.47;4.00;;;13.80;74.80;;;;;;5081660;28;20069;-88
2023/05/05 05:03:30;;;;;;;4.97;3.25;;;13.80;74.90;;;;;;5073726;28;20054;-89
2023/05/05 05:05:58;;;;;;;5.28;3.22;;;13.80;75.10;;;;;;5084561;28;20043;-88
2023/05/05 05:08:25;;;;;;;7.32;4.10;;;13.80;75.20;;;;;;5080216;28;20044;-88
2023/05/05 05:10:52;;;;;;;5.82;3.65;;;13.90;75.20;;;;;;5096313;28;20518;-88
2023/05/05 05:13:19;;;;;;;6.35;3.60;;;13.90;75.20;;;;;;5091172;28;20051;-89
2023/05/05 05:15:47;;;;;;;6.20;3.72;;;13.90;75.20;;;;;;5091331;28;20082;-88
2023/05/05 05:18:14;;;;;;;6.80;3.90;;;14.00;75.30;;;;;;5076173;28;20135;-88
2023/05/05 05:20:41;;;;;;;4.97;3.22;;;14.00;75.40;;;;;;5075554;28;20044;-88
2023/05/05 05:23:09;;;;;;;4.80;2.78;;;14.00;75.40;;;;;;5063606;28;20427;-88
2023/05/05 05:25:42;;;;;;;5.37;3.13;;;14.10;75.40;;;;;;5076622;28;20140;-88
2023/05/05 05:28:12;;;;;;;5.40;2.90;;;14.10;75.40;;;;;;5075915;28;20404;-88
2023/05/05 05:30:45;;;;;;;4.65;3.10;;;14.10;75.40;;;;;;5087223;28;20043;-88
2023/05/05 05:33:13;;;;;;;5.07;2.75;;;14.20;75.40;;;;;;5080906;28;20103;-89
2023/05/05 05:35:44;;;;;;;5.32;2.80;;;14.30;75.30;;;;;;5066480;28;20052;-89
2023/05/05 05:38:12;;;;;;;4.47;2.65;;;14.40;75.20;;;;;;5084481;28;20048;-89
2023/05/05 05:40:43;;;;;;;4.30;2.53;;;14.50;75.10;;;;;;5052600;28;20043;-88
2023/05/05 05:43:10;;;;;;;4.00;2.63;;;14.60;75.10;;;;;;5065028;28;20044;-88
2023/05/05 05:45:38;;;;;;;5.72;2.90;;;14.60;75.00;;;;;;5095725;28;20040;-89
2023/05/05 05:48:07;;;;;;;7.10;3.05;;;14.70;75.00;;;;;;5064158;28;20043;-89
2023/05/05 05:50:36;;;;;;;6.82;3.13;;;14.80;75.00;;;;;;5059431;28;20048;-88
2023/05/05 05:53:03;;;;;;;6.65;3.28;;;14.80;75.10;;;;;;5059108;28;20121;-88
2023/05/05 05:55:31;;;;;;;3.22;2.15;;;14.80;75.00;;;;;;5081270;28;20051;-89
2023/05/05 05:57:59;;;;;;;5.80;2.90;;;14.90;75.10;;;;;;5071468;28;20151;-89
2023/05/05 06:00:29;;;;;;;5.40;3.50;;;15.00;75.40;;;;;;5073022;28;20101;-89
2023/05/05 06:03:03;;;;;;;5.80;3.30;;;15.10;75.60;;;;;;5090947;28;20040;-89
2023/05/05 06:05:34;;;;;;;6.13;3.83;;;15.20;75.50;;;;;;5070939;28;20132;-89
2023/05/05 06:08:04;;;;;;;5.40;3.17;;;15.30;75.50;;;;;;5075632;28;20089;-89
2023/05/05 06:10:35;;;;;;;7.70;3.42;;;15.30;75.50;;;;;;5079143;28;20040;-89
2023/05/05 06:13:07;;;;;;;5.55;3.15;;;15.40;75.70;;;;;;5063289;28;20047;-89
2023/05/05 06:15:38;;;;;;;6.13;3.50;;;15.50;75.70;;;;;;5092432;28;20109;-89
2023/05/05 06:18:06;;;;;;;7.38;3.58;;;15.60;76.00;;;;;;5072252;28;20044;-89
2023/05/05 06:20:35;;;;;;;6.25;3.53;;;15.70;76.10;;;;;;5089765;28;20131;-89
2023/05/05 06:23:04;;;;;;;6.55;4.13;;;15.80;76.10;;;;;;5078680;28;20043;-88
2023/05/05 06:25:33;;;;;;;4.90;2.83;;;15.80;75.80;;;;;;5067797;28;20614;-89
2023/05/05 06:28:01;;;;;;;6.88;3.72;;;15.90;75.70;;;;;;5087210;28;20480;-89
2023/05/05 06:30:28;;;;;;;6.00;3.47;;;16.00;75.90;;;;;;5099089;28;20050;-89
2023/05/05 06:32:55;;;;;;;5.28;2.75;;;16.10;75.80;;;;;;5085043;28;20055;-89
2023/05/05 06:35:26;;;;;;;5.57;2.53;;;16.20;75.60;;;;;;5099266;28;20047;-88
2023/05/05 06:37:55;;;;;;;7.03;3.65;;;16.30;75.40;;;;;;5090664;28;20048;-89
2023/05/05 06:40:25;;;;;;;4.85;2.88;;;16.40;75.40;;;;;;5078322;28;20075;-88
2023/05/05 06:42:55;;;;;;;4.50;2.40;;;16.50;75.20;;;;;;5060696;28;20040;-89
2023/05/05 06:45:32;;;;;;;6.25;3.00;;;16.60;75.60;;;;;;5070870;28;20040;-88
2023/05/05 06:48:02;;;;;;;5.10;2.97;;;16.70;74.80;;;;;;5094815;28;20466;-88
2023/05/05 06:50:29;;;;;;;7.95;3.80;;;16.90;74.80;;;;;;5081581;28;20101;-89
2023/05/05 06:52:56;;;;;;;6.18;3.58;;;17.00;74.80;;;;;;5088382;28;20039;-88
2023/05/05 06:55:23;;;;;;;5.65;3.15;;;17.00;74.60;;;;;;5084320;28;20095;-88
2023/05/05 06:57:51;;;;;;;4.75;2.03;;;17.10;74.40;;;;;;5081956;28;20513;-88
2023/05/05 07:00:18;;;;;;;4.32;2.40;;;17.20;74.20;;;;;;5078463;28;20040;-88
2023/05/05 07:02:46;;;;;;;5.18;2.80;;;17.40;74.10;;;;;;5078076;28;20139;-89
2023/05/05 07:05:14;;;;;;;5.28;3.15;;;17.50;74.10;;;;;;5078275;28;20068;-90
2023/05/05 07:07:51;;;;;;;6.82;3.13;;;17.50;74.00;;;;;;5078121;28;20048;-88
2023/05/05 07:10:19;;;;;;;6.18;3.33;;;17.50;73.90;;;;;;5075143;28;20047;-86
2023/05/05 07:12:47;;;;;;;6.85;3.22;;;17.60;74.10;;;;;;5085480;28;20103;-87
2023/05/05 07:15:14;;;;;;;6.30;3.22;;;17.60;74.00;;;;;;5077476;28;20105;-85
2023/05/05 07:17:54;;;;;;;4.18;2.75;;;17.70;74.00;;;;;;5098164;28;20051;-88
2023/05/05 07:20:26;;;;;;;5.90;3.22;;;17.70;74.00;;;;;;5085548;28;20044;-90
2023/05/05 07:23:02;;;;;;;7.00;3.40;;;17.70;74.00;;;;;;5062320;28;20036;-91
2023/05/05 07:25:29;;;;;;;7.13;3.95;;;17.70;74.00;;;;;;5088169;28;20055;-87
2023/05/05 07:28:06;;;;;;;6.13;3.47;;;17.80;74.00;;;;;;5087914;28;20143;-90
2023/05/05 07:31:18;;;;;;;;;;;;;;;;;;;;;
2023/05/05 07:33:58;;;;;;;6.68;4.43;;;17.90;74.00;;;;;;5095859;28;20051;-91
2023/05/05 07:36:27;;;;;;;6.57;3.05;;;17.90;74.00;;;;;;5081022;28;20492;-87
2023/05/05 07:38:57;;;;;;;7.30;3.38;;;18.00;73.80;;;;;;5105810;28;20076;-91
2023/05/05 07:41:47;;;;;;;7.47;4.20;;;18.10;73.60;;;;;;5102051;28;20036;-90
2023/05/05 07:44:29;;;;;;;7.63;3.57;;;18.20;73.50;;;;;;5092812;28;20056;-92
2023/05/05 07:46:57;;;;;;;5.65;3.17;;;18.20;73.60;;;;;;5108437;28;20692;-90
2023/05/05 07:49:31;;;;;;;6.40;3.42;;;18.30;73.30;;;;;;5099892;28;20040;-88
2023/05/05 07:52:04;;;;;;;5.82;3.05;;;18.40;73.10;;;;;;5104934;28;20433;-89
2023/05/05 07:54:34;;;;;;;6.13;3.05;;;18.50;72.80;;;;;;5083466;28;20062;-91
2023/05/05 07:57:05;;;;;;;6.00;3.72;;;18.60;72.60;;;;;;5101370;28;20491;-90
2023/05/05 07:59:34;;;;;;;6.53;3.92;;;18.60;72.30;;;;;;5094601;28;20058;-90
2023/05/05 08:02:02;;;;;;;6.13;2.70;;;18.70;72.10;;;;;;5111750;28;20035;-86
2023/05/05 08:04:29;;;;;;;5.30;2.65;;;18.70;72.00;;;;;;5111702;28;20036;-87
2023/05/05 08:07:01;;;;;;;5.32;2.85;;;18.80;71.80;;;;;;5080439;28;20044;-87
2023/05/05 08:09:28;;;;;;;4.07;2.30;;;19.00;71.60;;;;;;5105795;28;20044;-89
2023/05/05 08:12:17;;;;;;;;;;;;;;;;;;;;;
2023/05/05 08:15:04;;;;;;;5.35;2.45;;;19.20;71.00;;;;;;5101295;28;20499;-87
2023/05/05 08:17:54;;;;;;;7.05;4.05;;;19.30;70.60;;;;;;5086591;28;20580;-86
2023/05/05 08:20:26;;;;;;;6.82;2.78;;;19.40;70.30;;;;;;5093790;28;20154;-88
2023/05/05 08:22:55;;;;;;;6.35;2.97;;;19.40;70.30;;;;;;5106739;28;20097;-87
2023/05/05 08:25:25;;;;;;;5.90;3.42;;;19.50;69.90;;;;;;5093862;28;20143;-88
2023/05/05 08:27:56;;;;;;;4.60;2.33;;;19.50;69.40;;;;;;5098106;28;20491;-89
2023/05/05 08:30:23;;;;;;;6.45;2.83;;;19.50;69.60;;;;;;5102022;28;20048;-86
2023/05/05 08:32:51;;;;;;;4.20;1.95;;;19.60;69.20;;;;;;5097438;28;20051;-88
2023/05/05 08:35:22;;;;;;;3.80;1.77;;;19.70;69.00;;;;;;5094029;28;20040;-89
2023/05/05 08:37:50;;;;;;;3.72;1.63;;;19.80;68.80;;;;;;5097302;28;20044;-88
2023/05/05 08:40:23;;;;;;;3.92;1.88;;;19.90;68.40;;;;;;5096981;28;20044;-87
2023/05/05 08:42:51;;;;;;;3.05;1.77;;;20.00;68.00;;;;;;5114256;28;20043;-91
2023/05/05 08:45:18;;;;;;;2.67;1.40;;;20.10;67.90;;;;;;5094225;28;20042;-91
2023/05/05 08:47:48;;;;;;;5.93;1.85;;;20.20;67.50;;;;;;5094583;28;20044;-88
2023/05/05 08:50:18;;;;;;;4.32;1.70;;;20.20;67.20;;;;;;5064869;28;20070;-91
2023/05/05 08:52:49;;;;;;;3.67;1.50;;;20.30;66.90;;;;;;5097735;28;20043;-89
2023/05/05 08:55:29;;;;;;;2.33;1.00;;;20.40;66.90;;;;;;5095575;28;20044;-89
2023/05/05 08:58:02;;;;;;;2.90;0.98;;;20.60;66.60;;;;;;5093902;28;20040;-88
2023/05/05 09:00:31;;;;;;;3.08;1.23;;;20.80;66.00;;;;;;5112066;28;20134;-89
2023/05/05 09:03:01;;;;;;;3.55;1.52;;;21.00;65.50;;;;;;5093044;28;20071;-89
2023/05/05 09:05:31;;;;;;;4.00;1.48;;;21.20;64.60;;;;;;5091037;28;20036;-86
2023/05/05 09:08:00;;;;;;;3.15;1.10;;;21.40;64.10;;;;;;5086590;28;20108;-86
2023/05/05 09:10:29;;;;;;;4.53;2.00;;;21.40;64.00;;;;;;5099510;28;20040;-92
2023/05/05 09:13:00;;;;;;;2.75;1.45;;;21.40;63.70;;;;;;5093812;28;20048;-92
2023/05/05 09:15:31;;;;;;;3.70;1.08;;;21.30;63.90;;;;;;5093412;28;20046;-92
2023/05/05 09:18:00;;;;;;;2.63;1.13;;;21.40;63.90;;;;;;5093948;28;20082;-86
2023/05/05 09:20:35;;;;;;;2.10;0.88;;;21.40;63.00;;;;;;5106441;28;20155;-88
2023/05/05 09:23:17;;;;;;;1.80;0.65;;;21.30;62.50;;;;;;5092814;28;20112;-90
2023/05/05 09:26:00;;;;;;;1.92;0.77;;;21.30;62.50;;;;;;5102608;28;20051;-89
2023/05/05 09:28:28;;;;;;;2.85;0.82;;;21.20;62.90;;;;;;5094332;28;20047;-89
2023/05/05 09:31:10;;;;;;;1.10;0.40;;;21.20;62.20;;;;;;5092771;28;20097;-90
2023/05/05 09:33:38;;;;;;;;;;;21.30;62.20;;;;;;5084465;28;20056;-89
2023/05/05 09:36:05;;;;;;;1.88;0.70;;;21.40;62.20;;;;;;5102569;28;19926;-89
2023/05/05 09:38:34;;;;;;;2.10;0.50;;;21.40;61.90;;;;;;5081926;28;20076;-84
2023/05/05 09:41:05;;;;;;;1.85;0.88;;;21.50;61.50;;;;;;5100427;28;20067;-90
2023/05/05 09:43:51;;;;;;;2.28;0.90;;;21.60;61.00;;;;;;5059719;28;20075;-88
2023/05/05 09:46:23;;;;;;;3.53;1.27;;;21.70;61.00;;;;;;5110643;28;20467;-89
2023/05/05 09:48:52;;;;;;;3.70;1.90;;;21.70;60.90;;;;;;5106231;28;20504;-92
2023/05/05 09:51:52;;;;;;;3.75;1.55;;;21.80;60.80;;;;;;5091753;28;20047;-90
2023/05/05 09:54:56;;;;;;;2.95;1.10;;;21.90;61.00;;;;;;5082400;28;20513;-90
2023/05/05 10:06:52;;;;;;;2.85;1.15;;;22.00;60.70;;;;;;5033609;28;20040;-91
2023/05/05 10:10:11;;;;;;;3.50;1.40;;;22.00;60.80;;;;;;5057779;28;20516;-88
2023/05/05 10:13:16;;;;;;;2.28;1.45;;;22.00;60.80;;;;;;4975681;28;20583;-93
2023/05/05 10:16:25;;;;;;;3.63;1.30;;;22.00;60.80;;;;;;5117920;27;20084;-91
2023/05/05 10:19:41;;;;;;;;;;;;;;;;;;;;;
2023/05/05 10:22:34;;;;;;;3.47;1.15;;;21.80;60.90;;;;;;5099992;28;20048;-93
2023/05/05 10:25:38;;;;;;;4.25;1.65;;;21.70;61.00;;;;;;5112386;28;20050;-86
2023/05/05 10:28:08;;;;;;;2.25;0.90;;;21.50;60.90;;;;;;5095351;28;20040;-87
2023/05/05 10:31:48;;;;;;;1.50;0.70;;;21.50;61.10;;;;;;5093011;28;20047;-89
2023/05/05 10:34:49;;;;;;;2.75;0.88;;;21.50;61.20;;;;;;5091880;28;20044;-87
2023/05/05 10:41:18;;;;;;;2.10;0.80;;;21.30;61.30;;;;;;5104670;28;19938;-87
2023/05/05 10:45:36;;;;;;;;;;;;;;;;;;;;;
2023/05/05 10:54:03;;;;;;;2.42;0.63;;;21.30;61.00;;;;;;4995202;28;20114;-86
2023/05/05 11:00:47;;;;;;;4.05;1.40;;;21.60;60.60;;;;;;4994617;28;20054;-93
2023/05/05 11:03:28;;;;;;;2.95;1.30;;;21.50;60.40;;;;;;4993521;28;20529;-87
2023/05/05 11:06:11;;;;;;;4.20;1.20;;;21.40;60.60;;;;;;4994561;28;20053;-85
2023/05/05 11:08:43;;;;;;;2.10;0.90;;;21.30;60.80;;;;;;5028969;28;20045;-82
2023/05/05 11:11:12;;;;;;;2.57;0.70;;;21.30;61.00;;;;;;5043824;28;20131;-86
2023/05/05 11:14:22;;;;;;;1.88;0.65;;;21.30;61.00;;;;;;5097520;28;20054;-96
2023/05/05 11:17:26;;;;;;;2.28;0.85;;;21.30;61.20;;;;;;5098261;28;20499;-92
2023/05/05 11:24:28;;;;;;;1.85;0.70;;;21.10;61.50;;;;;;5100820;28;20066;-89
2023/05/05 11:26:56;;;;;;;1.65;0.40;;;20.80;61.90;;;;;;5078053;28;20052;-90
2023/05/05 11:30:05;;;;;;;1.85;0.60;;;20.70;62.40;;;;;;5095095;28;20067;-90
2023/05/05 11:32:40;;;;;;;2.67;0.50;;;20.50;62.70;;;;;;5087115;28;20101;-91
2023/05/05 11:35:11;;;;;;;2.42;0.70;;;20.30;63.40;;;;;;5079127;28;20036;-85
2023/05/05 11:37:59;;;;;;;3.10;0.68;;;20.00;64.70;;;;;;5094274;28;20131;-86
2023/05/05 11:40:34;;;;;;;2.20;0.98;;;19.70;65.60;;;;;;5098819;28;20059;-85
2023/05/05 11:43:38;;;;;;;1.95;0.85;;;19.40;66.70;;;;;;5111503;28;20036;-86
2023/05/05 11:46:16;;;;;;;1.65;0.40;;;19.30;67.30;;;;;;5086380;28;20044;-85
2023/05/05 11:49:02;;;;;;;1.25;0.30;;;18.90;67.30;;;;;;5082554;28;20043;-88
2023/05/05 11:51:31;;;;;;;1.60;0.20;;;18.30;68.40;;;;;;5095407;28;20044;-89
2023/05/05 11:54:19;;;;;;;0.73;0.10;;;17.30;71.10;;;;;;5098431;28;20044;-86
2023/05/05 11:57:12;;;;;;;1.65;0.22;;;16.50;73.20;;;;;;5102703;27;20566;-87
2023/05/05 12:00:14;;;;;;;1.10;0.10;;;15.80;76.10;;;;;;5105159;28;20039;-89
2023/05/05 12:07:11;;;;;;;1.20;0.17;;;14.70;79.50;;;;;;5028411;28;20506;-92
2023/05/05 12:10:33;;;;;;;0.20;0.10;;;14.40;80.80;;;;;;5055607;28;20047;-90
2023/05/05 12:13:00;;;;;;;0.63;0.10;;;14.20;81.20;;;;;;5104091;28;20047;-89
2023/05/05 12:15:29;;;;;;;1.42;0.13;;;14.10;83.60;;;;;;5079083;28;20141;-90
2023/05/05 12:18:25;;;;;;;0.37;0.20;;;14.00;84.00;;;;;;5114191;28;20118;-90
2023/05/05 12:21:28;;;;;;;1.67;0.20;;;13.90;84.20;;;;;;5094322;28;20130;-90
2023/05/05 12:24:04;;;;;;;0.68;0.10;;;14.00;84.00;;;;;;5114609;28;20085;-89
2023/05/05 12:27:10;;;;;;;0.20;0.00;;;13.90;84.20;;;;;;5114032;28;20245;-93
2023/05/05 12:46:21;;;;;;;1.88;0.17;;;14.30;83.20;;;;;;5095063;28;20044;-96
2023/05/05 12:53:53;;;;;;;1.55;0.10;;;14.60;83.20;;;;;;5107391;28;20055;-92
2023/05/05 12:57:02;;;;;;;0.30;0.10;;;14.60;83.30;;;;;;5114305;28;20139;-89
2023/05/05 13:00:18;;;;;;;1.85;0.10;;;14.60;83.70;;;;;;5081406;28;20048;-91
2023/05/05 13:03:21;;;;;;;0.43;0.20;;;14.70;83.70;;;;;;5097229;28;20132;-93
2023/05/05 13:12:05;;;;;;;;;;;;;;;;;;;;;
2023/05/05 13:23:49;;;;;;;0.93;0.32;;;14.40;85.70;;;;;;4984690;28;20034;-88
2023/05/05 13:26:29;;;;;;;0.68;0.22;;;14.40;85.80;;;;;;5009399;28;20057;-89
2023/05/05 13:29:00;;;;;;;1.37;0.20;;;14.30;86.50;;;;;;5032742;28;20055;-89
2023/05/05 13:31:27;;;;;;;1.60;0.10;;;14.20;87.00;;;;;;5096736;28;20043;-90
2023/05/05 13:34:00;;;;;;;1.20;0.30;;;14.20;87.30;;;;;;5096892;28;20426;-92
2023/05/05 13:36:30;;;;;;;0.35;0.30;;;14.10;87.80;;;;;;5077946;28;20185;-83
2023/05/05 13:39:12;;;;;;;;;;;;;;;;;;;;;
2023/05/05 13:42:09;;;;;;;0.95;0.30;;;14.10;88.00;;;;;;5077664;28;20044;-83
2023/05/05 13:44:40;;;;;;;0.95;0.30;;;14.10;88.10;;;;;;5092608;28;20075;-88
2023/05/05 13:47:20;;;;;;;0.63;0.20;;;14.20;87.90;;;;;;5099378;28;20039;-88
2023/05/05 13:49:50;;;;;;;0.70;0.20;;;14.40;87.80;;;;;;5113347;28;20085;-87
2023/05/05 13:52:23;;;;;;;1.30;0.22;;;14.40;87.80;;;;;;5100031;28;20109;-90
2023/05/05 13:55:15;;;;;;;1.73;0.20;;;14.40;88.10;;;;;;5088698;28;20075;-88
2023/05/05 13:57:48;;;;;;;1.60;0.40;;;14.40;88.20;;;;;;5089778;28;20047;-90
2023/05/05 14:00:25;;;;;;;0.82;0.52;;;14.40;88.70;;;;;;5096158;28;20052;-94
2023/05/05 14:03:26;;;;;;;0.93;0.20;;;14.40;88.80;;;;;;5093354;28;20365;-91
2023/05/05 14:06:05;;;;;;;0.95;0.30;;;14.50;88.40;;;;;;5080783;28;20044;-85
2023/05/05 14:08:49;;;;;;;1.08;0.30;;;14.70;88.30;;;;;;5078947;28;20048;-89
2023/05/05 14:12:15;;;;;;;1.08;0.40;;;14.80;88.60;;;;;;5105450;28;20044;-88
2023/05/05 14:14:59;;;;;;;0.80;0.30;;;14.70;88.60;;;;;;5098986;28;20056;-91
2023/05/05 14:18:42;;;;;;;1.15;0.30;;;14.80;88.50;;;;;;5096470;28;20055;-88
2023/05/05 14:34:16;;;;;;;1.38;0.55;;;15.60;87.20;;;;;;5236000;22;20059;-90
2023/05/05 14:42:11;;;;;;;;;;;;;;;;;;;;;
2023/05/05 14:45:16;;;;;;;;;;;;;;;;;;;;;
2023/05/05 14:52:53;;;;;;;0.88;0.50;;;15.40;88.10;;;;;;4881179;29;20032;-91
2023/05/05 14:55:29;;;;;;;1.42;0.52;;;15.40;88.00;;;;;;4862387;29;20057;-91
2023/05/05 14:57:59;;;;;;;0.77;0.40;;;15.40;87.90;;;;;;4859523;29;20049;-92
2023/05/05 15:00:32;;;;;;;0.95;0.45;;;15.50;88.00;;;;;;4866609;29;20049;-93
2023/05/05 15:02:59;;;;;;;0.70;0.30;;;15.60;88.10;;;;;;4849360;29;20045;-87
2023/05/05 15:10:53;;;;;;;0.40;0.22;;;15.80;87.90;;;;;;4979458;28;20102;-89
2023/05/05 15:13:38;;;;;;;;;;;;;;;;;;;;;
2023/05/05 15:20:27;;;;;;;0.90;0.30;;;17.30;86.20;;;;;;5366997;23;20051;-89
2023/05/05 15:22:58;;;;;;;0.52;0.20;;;18.90;82.60;;;;;;4958937;28;20055;-86
2023/05/05 15:25:44;;;;;;;;;;;;;;;;;;;;;